Time;durP1;ratioP1;P1;durP2;ratioP2;P2;SDS_P1;SDS_P2;PMS_P1;PMS_P2;Temp;Humidity;BMP_temperature;BMP_pressure;BME280_temperature;BME280_humidity;BME280_pressure;Samples;Min_cycle;Max_cycle;Signal;HPM_P1;HPM_P2
2023/03/13 00:02:18;;;;;;;13.43;6.82;;;;;;;9.05;100.00;100050.16;10417457;28;20057;-76
2023/03/13 00:07:18;;;;;;;17.45;6.72;;;;;;;8.99;100.00;100023.16;10418344;28;20079;-76
2023/03/13 00:12:19;;;;;;;24.08;8.63;;;;;;;9.00;100.00;100022.97;10418954;28;20029;-77
2023/03/13 00:17:19;;;;;;;15.13;7.47;;;;;;;9.02;100.00;100004.66;10416481;28;20061;-77
2023/03/13 00:22:20;;;;;;;16.17;7.72;;;;;;;8.95;100.00;99982.25;10417656;28;20048;-77
2023/03/13 00:27:20;;;;;;;15.88;6.78;;;;;;;9.05;100.00;99974.53;10416362;28;20053;-77
2023/03/13 00:32:21;;;;;;;15.80;7.90;;;;;;;9.05;100.00;99960.22;10417579;28;20045;-76
2023/03/13 00:37:21;;;;;;;16.85;8.27;;;;;;;9.07;100.00;99948.16;10416905;28;20038;-77
2023/03/13 00:42:21;;;;;;;18.05;7.72;;;;;;;9.13;100.00;99942.97;10417349;28;20045;-77
2023/03/13 00:47:22;;;;;;;9.13;6.35;;;;;;;9.12;100.00;99919.69;10415377;28;20480;-77
2023/03/13 00:52:23;;;;;;;15.40;7.35;;;;;;;9.18;100.00;99921.53;10414936;28;20060;-77
2023/03/13 00:57:24;;;;;;;16.52;7.43;;;;;;;9.27;100.00;99890.53;10399048;28;20057;-77
2023/03/13 01:02:24;;;;;;;6.93;5.55;;;;;;;9.32;100.00;99888.88;10399961;28;20029;-77
2023/03/13 01:07:26;;;;;;;15.45;8.38;;;;;;;9.40;100.00;99871.56;10415374;28;20069;-76
2023/03/13 01:12:26;;;;;;;17.08;7.07;;;;;;;9.49;100.00;99867.59;10414980;28;20223;-76
2023/03/13 01:17:27;;;;;;;12.27;7.18;;;;;;;9.60;100.00;99857.94;10415676;28;20110;-77
2023/03/13 01:22:27;;;;;;;9.88;7.22;;;;;;;9.67;100.00;99845.25;10415808;28;20091;-76
2023/03/13 01:27:28;;;;;;;12.73;8.43;;;;;;;9.73;100.00;99833.56;10415035;28;20469;-77
2023/03/13 01:32:28;;;;;;;19.90;8.38;;;;;;;9.77;100.00;99825.84;10415482;28;20034;-76
2023/03/13 01:37:29;;;;;;;12.00;8.85;;;;;;;9.84;100.00;99804.97;10413703;28;20151;-77
2023/03/13 01:42:29;;;;;;;17.65;7.78;;;;;;;9.85;100.00;99809.34;10414661;28;20033;-76
2023/03/13 01:47:29;;;;;;;11.38;7.90;;;;;;;9.90;100.00;99782.47;10414228;28;20072;-76
2023/03/13 01:52:30;;;;;;;15.98;9.38;;;;;;;9.89;100.00;99775.41;10413867;28;20032;-76
2023/03/13 01:57:35;;;;;;;17.05;9.15;;;;;;;9.99;100.00;99767.63;10415612;28;20327;-77
2023/03/13 02:02:36;;;;;;;10.68;9.48;;;;;;;10.09;100.00;99760.91;10412620;28;20037;-76
2023/03/13 02:07:39;;;;;;;14.57;10.27;;;;;;;10.10;100.00;99757.94;10397309;28;20033;-77
2023/03/13 02:12:39;;;;;;;16.35;10.48;;;;;;;10.13;100.00;99730.47;10396952;28;20354;-76
2023/03/13 02:17:40;;;;;;;16.65;8.95;;;;;;;10.19;100.00;99731.44;10395999;28;20037;-75
2023/03/13 02:22:43;;;;;;;14.98;11.52;;;;;;;10.23;100.00;99732.66;10411954;28;20389;-76
2023/03/13 02:27:44;;;;;;;19.40;11.02;;;;;;;10.25;100.00;99722.44;10414380;28;20053;-74
2023/03/13 02:32:44;;;;;;;9.80;8.02;;;;;;;10.30;100.00;99743.44;10395827;28;20492;-74
2023/03/13 02:37:47;;;;;;;11.35;9.35;;;;;;;10.40;100.00;99730.19;10396422;28;20039;-74
2023/03/13 02:42:47;;;;;;;25.60;6.53;;;;;;;10.44;100.00;99726.03;10395995;28;20424;-74
2023/03/13 02:47:47;;;;;;;13.13;8.32;;;;;;;10.56;100.00;99723.38;10411596;28;20061;-74
2023/03/13 02:52:50;;;;;;;18.17;8.82;;;;;;;10.63;100.00;99708.72;10413578;28;20426;-74
2023/03/13 02:57:50;;;;;;;12.15;7.88;;;;;;;10.72;100.00;99698.41;10420634;28;20059;-74
2023/03/13 03:02:52;;;;;;;10.75;5.68;;;;;;;10.79;100.00;99698.31;10420536;28;20039;-74
2023/03/13 03:07:53;;;;;;;9.18;5.78;;;;;;;10.82;100.00;99684.31;10418975;28;20037;-74
2023/03/13 03:12:53;;;;;;;12.85;5.38;;;;;;;10.95;100.00;99700.38;10402674;28;20029;-76
2023/03/13 03:17:54;;;;;;;16.80;6.20;;;;;;;11.02;100.00;99703.00;10421710;28;20060;-76
2023/03/13 03:22:54;;;;;;;6.75;5.00;;;;;;;10.99;100.00;99696.16;10402342;28;20066;-77
2023/03/13 03:27:54;;;;;;;9.20;4.57;;;;;;;11.02;100.00;99679.44;10419070;28;20049;-75
2023/03/13 03:32:55;;;;;;;7.00;4.05;;;;;;;11.01;100.00;99677.81;10419323;28;20436;-75
2023/03/13 03:37:55;;;;;;;5.97;5.30;;;;;;;11.00;100.00;99678.03;10422624;28;20037;-76
2023/03/13 03:42:56;;;;;;;7.13;4.55;;;;;;;10.94;100.00;99661.66;10444246;28;20453;-75
2023/03/13 03:47:58;;;;;;;16.05;5.45;;;;;;;10.99;100.00;99671.78;10449493;28;20041;-76
2023/03/13 03:52:59;;;;;;;5.20;4.43;;;;;;;11.04;100.00;99660.25;10419824;28;20573;-76
2023/03/13 03:57:59;;;;;;;7.07;5.70;;;;;;;10.99;100.00;99660.94;10418954;28;20120;-75
2023/03/13 04:02:59;;;;;;;11.25;4.93;;;;;;;11.00;100.00;99645.50;10418156;28;20047;-75
2023/03/13 04:08:00;;;;;;;7.47;4.55;;;;;;;10.96;100.00;99655.16;10415990;28;20052;-74
2023/03/13 04:13:00;;;;;;;10.35;4.85;;;;;;;10.98;100.00;99661.19;10416290;28;20033;-75
2023/03/13 04:18:01;;;;;;;8.18;4.90;;;;;;;10.98;100.00;99650.34;10416356;28;20116;-73
2023/03/13 04:23:01;;;;;;;8.40;4.95;;;;;;;11.02;100.00;99648.81;10416804;28;20033;-73
2023/03/13 04:28:02;;;;;;;8.30;5.43;;;;;;;11.04;100.00;99631.28;10417579;28;20049;-73
2023/03/13 04:33:02;;;;;;;10.23;5.72;;;;;;;11.06;100.00;99626.44;10416857;28;20068;-75
2023/03/13 04:38:02;;;;;;;8.20;5.43;;;;;;;11.08;100.00;99608.09;10418135;28;20080;-74
2023/03/13 04:43:04;;;;;;;16.98;5.97;;;;;;;11.09;100.00;99608.91;10415580;28;20049;-73
2023/03/13 04:48:05;;;;;;;10.30;6.03;;;;;;;11.15;100.00;99600.66;10398816;28;20056;-74
2023/03/13 04:53:05;;;;;;;6.05;5.53;;;;;;;11.19;100.00;99595.59;10416090;28;20116;-75
2023/03/13 04:58:05;;;;;;;20.25;7.07;;;;;;;11.17;100.00;99595.84;10416809;28;20042;-74
2023/03/13 05:03:06;;;;;;;10.27;5.15;;;;;;;11.17;100.00;99574.19;10416650;28;20069;-74
2023/03/13 05:08:07;;;;;;;6.82;4.50;;;;;;;11.17;100.00;99557.91;10398025;28;20428;-75
2023/03/13 05:13:07;;;;;;;17.70;4.65;;;;;;;11.16;100.00;99567.09;10413640;28;20499;-74
2023/03/13 05:18:08;;;;;;;23.65;6.50;;;;;;;11.21;100.00;99558.28;10414741;28;20041;-76
2023/03/13 05:23:08;;;;;;;9.25;4.85;;;;;;;11.11;100.00;99544.50;10414192;28;20487;-78
2023/03/13 05:28:09;;;;;;;15.13;6.80;;;;;;;11.20;100.00;99543.09;10415805;28;20139;-74
2023/03/13 05:33:09;;;;;;;10.05;4.88;;;;;;;11.26;100.00;99549.44;10414121;28;20134;-75
2023/03/13 05:38:10;;;;;;;18.08;5.20;;;;;;;11.24;100.00;99574.06;10413498;28;20369;-77
2023/03/13 05:43:10;;;;;;;13.30;4.15;;;;;;;11.29;100.00;99548.97;10413587;28;20037;-77
2023/03/13 05:48:11;;;;;;;7.97;5.13;;;;;;;11.26;100.00;99531.28;10415936;28;20033;-77
2023/03/13 05:53:11;;;;;;;10.95;5.18;;;;;;;11.27;100.00;99541.09;10416614;28;20539;-79
2023/03/13 05:58:11;;;;;;;11.18;4.90;;;;;;;11.31;100.00;99527.88;10415642;28;20041;-75
2023/03/13 06:03:12;;;;;;;6.32;2.63;;;;;;;11.35;100.00;99535.28;10417782;28;20030;-76
2023/03/13 06:08:12;;;;;;;9.88;3.90;;;;;;;11.40;100.00;99548.16;10426467;28;20376;-77
2023/03/13 06:13:12;;;;;;;13.18;5.35;;;;;;;11.35;100.00;99553.44;10440919;28;20033;-77
2023/03/13 06:18:13;;;;;;;6.55;3.17;;;;;;;11.15;100.00;99538.34;10415476;28;20065;-77
2023/03/13 06:23:13;;;;;;;5.10;3.42;;;;;;;11.07;100.00;99564.97;10415279;28;20410;-79
2023/03/13 06:28:14;;;;;;;16.30;4.93;;;;;;;11.03;100.00;99561.91;10414726;28;20057;-78
2023/03/13 06:33:15;;;;;;;17.77;5.63;;;;;;;10.90;100.00;99562.94;10422042;28;20128;-78
2023/03/13 06:38:15;;;;;;;15.75;6.28;;;;;;;10.94;100.00;99558.72;10420449;28;20409;-78
2023/03/13 06:43:15;;;;;;;8.15;5.20;;;;;;;10.91;100.00;99577.28;10421736;28;20358;-75
2023/03/13 06:48:16;;;;;;;6.78;4.20;;;;;;;10.87;100.00;99522.78;10404211;28;20061;-77
2023/03/13 06:53:18;;;;;;;13.02;5.05;;;;;;;10.94;100.00;99550.59;10420241;28;20388;-78
2023/03/13 06:58:18;;;;;;;8.88;4.75;;;;;;;11.00;100.00;99529.84;10421774;28;20037;-76
2023/03/13 07:03:19;;;;;;;8.23;5.38;;;;;;;10.98;100.00;99534.69;10420170;28;20041;-76
2023/03/13 07:08:19;;;;;;;6.22;3.03;;;;;;;10.99;100.00;99538.22;10422922;28;20608;-77
2023/03/13 07:13:21;;;;;;;8.07;4.88;;;;;;;11.01;100.00;99552.34;10421510;28;20034;-76
2023/03/13 07:18:21;;;;;;;12.07;5.50;;;;;;;11.00;100.00;99529.84;10419093;28;20033;-76
2023/03/13 07:23:23;;;;;;;6.90;3.97;;;;;;;11.04;100.00;99550.03;10418379;28;20116;-76
2023/03/13 07:28:24;;;;;;;5.32;4.50;;;;;;;11.17;100.00;99540.84;10401567;28;20049;-75
2023/03/13 07:33:25;;;;;;;7.32;4.03;;;;;;;11.21;100.00;99552.84;10420259;28;20128;-75
2023/03/13 07:38:25;;;;;;;11.55;3.88;;;;;;;11.38;100.00;99537.53;10419086;28;20108;-74
2023/03/13 07:43:26;;;;;;;9.15;4.43;;;;;;;11.45;100.00;99531.16;10418118;28;20041;-74
2023/03/13 07:48:31;;;;;;;8.02;4.60;;;;;;;11.72;100.00;99512.53;10419770;28;20140;-74
2023/03/13 07:53:31;;;;;;;13.18;4.05;;;;;;;12.12;100.00;99528.81;10418575;28;20094;-73
2023/03/13 07:58:33;;;;;;;8.98;2.90;;;;;;;11.98;100.00;99525.56;10400440;28;20440;-73
2023/03/13 08:03:34;;;;;;;2.72;2.53;;;;;;;11.94;100.00;99523.59;10400793;28;20435;-73
2023/03/13 08:08:35;;;;;;;6.15;3.50;;;;;;;11.88;100.00;99502.84;10400556;28;20044;-72
2023/03/13 08:13:35;;;;;;;3.15;2.05;;;;;;;11.82;100.00;99499.16;10417400;28;20057;-73
2023/03/13 08:18:36;;;;;;;4.55;2.90;;;;;;;11.97;100.00;99466.97;10416826;28;20056;-73
2023/03/13 08:23:37;;;;;;;9.20;4.28;;;;;;;12.08;100.00;99470.69;10416881;28;20059;-72
2023/03/13 08:28:38;;;;;;;17.38;4.50;;;;;;;11.99;100.00;99510.94;10407999;28;20094;-72
2023/03/13 08:33:39;;;;;;;5.18;3.83;;;;;;;12.29;100.00;99494.44;10428333;28;20025;-71
2023/03/13 08:38:41;;;;;;;7.95;3.97;;;;;;;13.70;100.00;99503.47;10385371;28;20021;-71
2023/03/13 08:43:41;;;;;;;5.90;3.03;;;;;;;14.68;100.00;99486.28;10398825;28;20432;-72
2023/03/13 08:48:42;;;;;;;6.82;2.17;;;;;;;15.22;100.00;99473.38;10417202;28;20087;-72
2023/03/13 08:53:42;;;;;;;3.75;2.42;;;;;;;14.39;100.00;99473.78;10414877;28;20519;-71
2023/03/13 08:58:43;;;;;;;6.82;3.22;;;;;;;14.16;100.00;99469.44;10415510;28;20038;-71
2023/03/13 09:03:43;;;;;;;17.00;4.35;;;;;;;13.89;100.00;99463.97;10414959;28;20384;-72
2023/03/13 09:08:44;;;;;;;12.68;4.18;;;;;;;13.75;100.00;99451.00;10415059;28;20087;-71
2023/03/13 09:13:48;;;;;;;10.25;3.65;;;;;;;14.41;100.00;99457.16;10414863;28;20025;-72
2023/03/13 09:18:49;;;;;;;13.60;3.38;;;;;;;14.45;100.00;99449.28;10413843;28;20025;-72
2023/03/13 09:23:50;;;;;;;4.72;2.13;;;;;;;13.97;100.00;99438.19;10398166;28;20479;-72
2023/03/13 09:28:51;;;;;;;14.27;2.97;;;;;;;14.49;100.00;99439.53;10415158;28;20045;-72
2023/03/13 09:33:51;;;;;;;6.22;2.38;;;;;;;14.84;100.00;99428.13;10396873;28;20071;-72
2023/03/13 09:38:53;;;;;;;7.28;2.45;;;;;;;14.81;100.00;99415.84;10415061;28;20508;-72
2023/03/13 09:44:01;;;;;;;5.28;2.33;;;;;;;14.40;100.00;99414.66;10413163;28;20079;-71
2023/03/13 09:49:12;;;;;;;2.10;1.58;;;;;;;14.13;100.00;99412.78;10413127;28;20064;-72
2023/03/13 09:54:23;;;;;;;3.78;1.30;;;;;;;14.23;100.00;99397.63;10397904;28;20458;-73
2023/03/13 09:59:31;;;;;;;2.58;2.13;;;;;;;14.08;100.00;99401.84;10412897;28;20033;-72
2023/03/13 10:04:38;;;;;;;3.55;1.88;;;;;;;14.51;100.00;99426.50;10400370;28;20367;-72
2023/03/13 10:09:42;;;;;;;5.22;2.17;;;;;;;14.65;100.00;99401.28;10405257;28;20048;-72
2023/03/13 10:14:52;;;;;;;4.47;2.05;;;;;;;14.70;100.00;99402.41;10421722;28;20339;-74
2023/03/13 10:19:59;;;;;;;8.90;2.03;;;;;;;14.69;100.00;99407.03;10406939;28;20091;-74
2023/03/13 10:25:17;;;;;;;10.27;3.15;;;;;;;14.67;100.00;99402.94;10422008;28;20034;-72
2023/03/13 10:30:34;;;;;;;6.30;3.35;;;;;;;15.00;100.00;99382.72;10404496;28;20111;-72
2023/03/13 10:35:36;;;;;;;11.50;3.47;;;;;;;14.68;100.00;99378.16;10420362;28;20429;-74
2023/03/13 10:40:37;;;;;;;15.00;3.63;;;;;;;14.70;100.00;99383.34;10404452;28;20037;-73
2023/03/13 10:45:38;;;;;;;11.65;3.95;;;;;;;15.96;100.00;99370.56;10405541;28;20566;-74
2023/03/13 10:50:43;;;;;;;9.02;3.25;;;;;;;16.69;100.00;99364.84;10433795;28;20105;-75
2023/03/13 10:55:43;;;;;;;8.73;3.65;;;;;;;16.25;100.00;99385.34;10438916;28;20026;-74
2023/03/13 11:00:44;;;;;;;24.77;3.35;;;;;;;16.47;100.00;99370.59;10422530;28;20124;-73
2023/03/13 11:05:58;;;;;;;14.65;5.28;;;;;;;16.37;100.00;99376.91;10403043;28;20109;-74
2023/03/13 11:11:00;;;;;;;17.98;3.38;;;;;;;15.88;100.00;99365.63;10418234;28;20025;-74
2023/03/13 11:16:17;;;;;;;8.00;3.42;;;;;;;16.70;100.00;99347.34;10418840;28;20045;-76
2023/03/13 11:21:38;;;;;;;11.85;4.40;;;;;;;17.21;100.00;99360.94;10403318;28;20044;-75
2023/03/13 11:26:43;;;;;;;9.85;4.00;;;;;;;17.62;100.00;99360.75;10418598;28;20065;-75
2023/03/13 11:31:46;;;;;;;6.65;3.55;;;;;;;17.79;100.00;99374.09;10402565;28;20044;-75
2023/03/13 11:37:04;;;;;;;8.75;4.75;;;;;;;17.19;100.00;99380.34;10385815;28;20029;-75
2023/03/13 11:42:37;;;;;;;11.65;5.18;;;;;;;17.12;100.00;99381.75;10401986;28;20083;-76
2023/03/13 11:47:47;;;;;;;7.65;3.70;;;;;;;18.21;100.00;99357.09;10418836;28;20112;-76
2023/03/13 11:52:56;;;;;;;11.63;4.78;;;;;;;17.16;100.00;99369.13;10400856;28;20120;-76
2023/03/13 11:58:09;;;;;;;12.38;4.32;;;;;;;16.40;100.00;99362.69;10417946;28;20068;-76
2023/03/13 12:03:15;;;;;;;12.48;5.30;;;;;;;16.40;100.00;99368.16;10418388;28;20029;-76
2023/03/13 12:08:29;;;;;;;15.60;5.95;;;;;;;16.11;100.00;99358.81;10418286;28;20041;-75
2023/03/13 12:13:45;;;;;;;14.63;5.68;;;;;;;17.32;100.00;99359.78;10401649;28;20525;-76
2023/03/13 12:18:45;;;;;;;21.73;5.95;;;;;;;17.31;100.00;99380.03;10400278;28;20022;-75
2023/03/13 12:24:18;;;;;;;18.35;4.72;;;;;;;16.46;100.00;99320.59;10416225;28;20025;-76
2023/03/13 12:29:35;;;;;;;17.02;5.93;;;;;;;16.08;100.00;99367.56;10415646;28;20049;-75
2023/03/13 12:34:50;;;;;;;17.45;5.28;;;;;;;16.83;100.00;99352.28;10385843;28;20461;-75
2023/03/13 12:39:55;;;;;;;16.65;4.25;;;;;;;16.54;100.00;99341.09;10417884;28;20025;-75
2023/03/13 12:44:56;;;;;;;13.57;4.57;;;;;;;17.11;100.00;99314.47;10383975;28;20040;-76
2023/03/13 12:50:23;;;;;;;9.20;4.80;;;;;;;16.98;100.00;99315.06;10417851;28;20453;-76
2023/03/13 12:55:42;;;;;;;10.05;5.07;;;;;;;17.61;100.00;99342.66;10416817;28;20450;-75
2023/03/13 13:00:44;;;;;;;10.00;5.28;;;;;;;17.41;95.49;99324.44;10417764;28;20120;-77
2023/03/13 13:06:20;;;;;;;7.05;4.43;;;;;;;17.50;100.00;99302.78;10382555;28;20041;-76
2023/03/13 13:11:35;;;;;;;25.60;4.45;;;;;;;17.44;100.00;99311.00;10367441;28;20397;-77
2023/03/13 13:16:38;;;;;;;19.38;5.75;;;;;;;17.40;97.54;99306.41;10430166;28;20041;-77
2023/03/13 13:21:39;;;;;;;13.93;5.57;;;;;;;16.28;98.63;99288.38;10413806;28;20122;-76
2023/03/13 13:26:46;;;;;;;11.18;5.13;;;;;;;16.16;100.00;99298.75;10398199;28;20122;-75
2023/03/13 13:31:47;;;;;;;14.68;4.95;;;;;;;16.33;100.00;99276.63;10399746;28;20515;-77
2023/03/13 13:36:47;;;;;;;10.77;5.38;;;;;;;16.47;98.71;99275.78;10416111;28;20179;-76
2023/03/13 13:41:48;;;;;;;33.88;6.30;;;;;;;16.38;96.41;99143.56;10397237;28;20543;-76
2023/03/13 13:46:48;;;;;;;26.80;5.82;;;;;;;16.22;96.14;99243.06;10415452;28;20117;-76
2023/03/13 13:52:01;;;;;;;13.90;5.82;;;;;;;16.26;86.96;99236.75;10413786;28;20112;-76
2023/03/13 13:57:06;;;;;;;19.73;5.65;;;;;;;16.21;88.70;99220.38;10415664;28;20061;-75
2023/03/13 14:02:06;;;;;;;13.32;6.57;;;;;;;16.03;91.50;99221.75;10414636;28;20103;-75
2023/03/13 14:07:29;;;;;;;13.93;5.20;;;;;;;16.30;90.60;99237.00;10414211;28;20063;-76
2023/03/13 14:12:31;;;;;;;29.52;5.78;;;;;;;16.24;94.19;99230.75;10400145;28;20029;-75
2023/03/13 14:17:40;;;;;;;15.07;5.82;;;;;;;16.16;87.49;99216.84;10412697;28;20120;-76
2023/03/13 14:22:45;;;;;;;27.40;5.97;;;;;;;16.12;89.83;99221.22;10415202;28;20034;-75
2023/03/13 14:27:46;;;;;;;17.45;6.10;;;;;;;15.89;85.79;99228.88;10412201;28;20401;-76
2023/03/13 14:32:46;;;;;;;14.88;4.85;;;;;;;15.73;83.96;99210.84;10412374;28;20037;-76
2023/03/13 14:37:49;;;;;;;13.40;4.78;;;;;;;15.70;81.23;99203.22;10411714;28;20060;-75
2023/03/13 14:42:55;;;;;;;15.38;4.43;;;;;;;15.81;85.75;99202.94;10413725;28;20034;-76
2023/03/13 14:48:13;;;;;;;12.80;4.45;;;;;;;15.66;84.29;99230.19;10414434;28;20527;-76
2023/03/13 14:53:20;;;;;;;12.13;5.03;;;;;;;15.33;84.85;99221.41;10420861;28;20033;-76
2023/03/13 14:58:30;;;;;;;19.02;6.45;;;;;;;15.24;89.22;99231.22;10421335;28;20033;-75
2023/03/13 15:03:31;;;;;;;11.90;5.75;;;;;;;15.22;87.81;99227.97;10421525;28;20121;-75
2023/03/13 15:08:32;;;;;;;10.90;4.97;;;;;;;15.34;85.18;99184.88;10420489;28;20045;-75
2023/03/13 15:13:36;;;;;;;15.88;5.18;;;;;;;15.14;87.99;99216.75;10401739;28;20026;-75
2023/03/13 15:18:36;;;;;;;14.25;5.55;;;;;;;14.75;89.48;99198.91;10421037;28;20041;-76
2023/03/13 15:23:36;;;;;;;17.13;4.97;;;;;;;14.35;90.32;99213.91;10419211;28;20128;-74
2023/03/13 15:28:37;;;;;;;21.60;6.30;;;;;;;13.98;90.31;99202.28;10420772;28;20057;-75
2023/03/13 15:33:37;;;;;;;22.35;6.57;;;;;;;13.72;91.18;99178.41;10419730;28;20434;-75
2023/03/13 15:38:38;;;;;;;21.63;7.13;;;;;;;13.55;88.81;99160.56;10424557;28;20048;-75
2023/03/13 15:43:38;;;;;;;23.00;7.10;;;;;;;13.37;89.73;99153.63;10435796;28;20103;-75
2023/03/13 15:48:40;;;;;;;24.27;6.30;;;;;;;13.30;93.63;99161.97;10437606;28;20056;-75
2023/03/13 15:53:40;;;;;;;18.98;6.03;;;;;;;13.24;91.86;99149.38;10423718;28;20071;-75
2023/03/13 15:58:41;;;;;;;18.88;5.53;;;;;;;13.18;87.35;99131.44;10418830;28;20171;-75
2023/03/13 16:03:41;;;;;;;18.25;6.90;;;;;;;13.11;90.10;99109.88;10417587;28;20440;-76
2023/03/13 16:08:42;;;;;;;17.00;7.38;;;;;;;13.00;88.91;99117.13;10416449;28;20028;-75
2023/03/13 16:13:43;;;;;;;18.45;5.90;;;;;;;12.89;89.78;99095.53;10400753;28;20036;-77
2023/03/13 16:18:43;;;;;;;28.52;6.88;;;;;;;12.83;94.23;99112.84;10416574;28;20076;-75
2023/03/13 16:23:43;;;;;;;20.67;6.20;;;;;;;12.72;93.98;99103.78;10418332;28;20026;-75
2023/03/13 16:28:44;;;;;;;24.85;7.80;;;;;;;12.63;96.73;99086.31;10400737;28;20376;-75
2023/03/13 16:33:45;;;;;;;15.43;6.55;;;;;;;12.53;97.11;99087.81;10417360;28;20133;-75
2023/03/13 16:38:46;;;;;;;19.35;7.28;;;;;;;12.45;93.44;99080.16;10417218;28;20044;-76
2023/03/13 16:43:46;;;;;;;21.65;7.28;;;;;;;12.39;95.55;99067.59;10415307;28;20076;-76
2023/03/13 16:48:47;;;;;;;26.88;5.50;;;;;;;12.26;95.79;99079.66;10418364;28;20052;-76
2023/03/13 16:53:50;;;;;;;36.17;5.55;;;;;;;12.08;96.16;99069.94;10398990;28;20124;-77
2023/03/13 16:58:50;;;;;;;35.78;8.82;;;;;;;11.98;98.57;99066.28;10415028;28;20022;-76
2023/03/13 17:03:51;;;;;;;17.25;6.35;;;;;;;11.81;100.00;99061.69;10415730;28;20432;-76
2023/03/13 17:08:51;;;;;;;26.63;8.10;;;;;;;11.77;100.00;99063.28;10416452;28;20037;-76
2023/03/13 17:13:52;;;;;;;32.65;8.23;;;;;;;11.79;100.00;99066.53;10413799;28;20073;-76
2023/03/13 17:18:52;;;;;;;25.05;6.97;;;;;;;11.93;100.00;99050.75;10414837;28;20033;-76
2023/03/13 17:23:53;;;;;;;11.73;6.45;;;;;;;12.06;100.00;99054.97;10413805;28;20044;-76
2023/03/13 17:28:55;;;;;;;15.95;6.32;;;;;;;12.07;100.00;99062.06;10412971;28;20053;-77
2023/03/13 17:33:55;;;;;;;16.92;7.10;;;;;;;11.96;100.00;99060.28;10412743;28;20435;-75
2023/03/13 17:38:57;;;;;;;27.15;7.65;;;;;;;11.94;100.00;99046.16;10414544;28;20108;-76
2023/03/13 17:44:02;;;;;;;17.75;5.68;;;;;;;11.93;100.00;99060.78;10396761;28;20454;-76
2023/03/13 17:49:02;;;;;;;25.63;8.52;;;;;;;11.78;100.00;99054.06;10415484;28;20049;-76
2023/03/13 17:54:03;;;;;;;17.13;5.82;;;;;;;11.67;100.00;99046.03;10413564;28;20109;-76
2023/03/13 17:59:05;;;;;;;30.83;7.43;;;;;;;11.58;100.00;99048.34;10415085;28;20037;-76
2023/03/13 18:04:05;;;;;;;21.85;6.53;;;;;;;11.39;100.00;99039.66;10419994;28;20461;-77
2023/03/13 18:09:07;;;;;;;20.58;7.22;;;;;;;11.36;100.00;99041.00;10423695;28;20136;-75
2023/03/13 18:14:07;;;;;;;31.25;8.00;;;;;;;11.24;100.00;99036.75;10411143;28;20024;-76
2023/03/13 18:19:18;;;;;;;20.83;6.38;;;;;;;11.15;100.00;99036.31;10385460;28;20116;-77
2023/03/13 18:24:18;;;;;;;24.60;6.75;;;;;;;11.07;100.00;99034.03;10414412;28;20037;-76
2023/03/13 18:29:26;;;;;;;25.05;6.00;;;;;;;10.97;100.00;99026.56;10403683;28;20057;-75
2023/03/13 18:34:26;;;;;;;22.10;6.82;;;;;;;10.95;100.00;99017.88;10421176;28;20476;-75
2023/03/13 18:39:27;;;;;;;22.40;6.18;;;;;;;10.93;100.00;99014.56;10422008;28;20033;-76
2023/03/13 18:44:27;;;;;;;21.88;5.60;;;;;;;10.86;100.00;99006.63;10421230;28;20538;-75
2023/03/13 18:49:28;;;;;;;20.65;6.40;;;;;;;10.83;100.00;99004.41;10421098;28;20053;-76
2023/03/13 18:54:28;;;;;;;30.90;7.72;;;;;;;10.80;100.00;99004.06;10420156;28;20071;-76
2023/03/13 18:59:29;;;;;;;21.20;6.78;;;;;;;10.71;100.00;98990.94;10422383;28;20034;-76
2023/03/13 19:04:29;;;;;;;30.60;7.57;;;;;;;10.69;100.00;98990.38;10420445;28;20029;-75
2023/03/13 19:09:30;;;;;;;36.78;9.23;;;;;;;10.69;100.00;98992.25;10419838;28;20354;-75
2023/03/13 19:14:30;;;;;;;31.20;8.63;;;;;;;10.64;100.00;98992.16;10419940;28;20037;-76
2023/03/13 19:19:30;;;;;;;37.53;7.88;;;;;;;10.62;100.00;98981.56;10420024;28;20073;-76
2023/03/13 19:24:31;;;;;;;29.50;8.52;;;;;;;10.52;100.00;98969.75;10402936;28;20129;-76
2023/03/13 19:29:35;;;;;;;30.50;7.78;;;;;;;10.53;100.00;98979.50;10418102;28;20126;-76
2023/03/13 19:34:35;;;;;;;31.25;7.22;;;;;;;10.46;100.00;98961.56;10418303;28;20037;-76
2023/03/13 19:39:36;;;;;;;20.88;7.22;;;;;;;10.38;100.00;98958.44;10418427;28;20045;-77
2023/03/13 19:44:36;;;;;;;22.50;8.00;;;;;;;10.40;100.00;98951.72;10416481;28;20485;-73
2023/03/13 19:49:37;;;;;;;27.90;6.63;;;;;;;10.42;100.00;98932.53;10415301;28;20067;-73
2023/03/13 19:54:37;;;;;;;15.10;6.90;;;;;;;10.50;100.00;98932.13;10415989;28;20476;-73
2023/03/13 19:59:38;;;;;;;26.65;7.47;;;;;;;10.41;100.00;98915.47;10416924;28;20164;-72
2023/03/13 20:04:41;;;;;;;22.83;6.65;;;;;;;10.41;100.00;98907.34;10415213;28;20033;-73
2023/03/13 20:09:41;;;;;;;20.55;7.05;;;;;;;10.37;100.00;98921.59;10415982;28;20442;-71
2023/03/13 20:14:41;;;;;;;22.67;8.27;;;;;;;10.31;100.00;98909.91;10415105;28;20076;-72
2023/03/13 20:19:42;;;;;;;25.25;8.02;;;;;;;10.37;100.00;98899.94;10415955;28;20065;-72
2023/03/13 20:24:42;;;;;;;24.85;8.27;;;;;;;10.37;100.00;98892.69;10417912;28;20462;-73
2023/03/13 20:29:43;;;;;;;16.33;5.47;;;;;;;10.21;100.00;98877.19;10385537;28;1110778;-71
2023/03/13 20:34:43;;;;;;;30.33;7.40;;;;;;;10.25;100.00;98879.19;10406945;28;20091;-72
2023/03/13 20:39:43;;;;;;;18.77;6.63;;;;;;;10.25;100.00;98889.19;10417368;28;20037;-74
2023/03/13 20:44:44;;;;;;;24.75;7.38;;;;;;;10.24;100.00;98887.53;10416838;28;20430;-76
2023/03/13 20:49:45;;;;;;;12.43;5.68;;;;;;;10.29;100.00;98882.25;10416200;28;20469;-71
2023/03/13 20:54:45;;;;;;;22.20;5.20;;;;;;;10.34;100.00;98881.50;10416045;28;20464;-73
2023/03/13 20:59:46;;;;;;;19.30;6.47;;;;;;;10.46;100.00;98899.34;10414707;28;20484;-74
2023/03/13 21:04:46;;;;;;;24.10;6.78;;;;;;;10.68;100.00;98893.16;10415558;28;20080;-74
2023/03/13 21:09:46;;;;;;;17.48;4.90;;;;;;;10.81;100.00;98895.50;10416553;28;20061;-74
2023/03/13 21:14:48;;;;;;;20.95;6.75;;;;;;;10.87;100.00;98897.22;10415253;28;20033;-72
2023/03/13 21:19:48;;;;;;;25.83;6.63;;;;;;;11.01;100.00;98894.16;10417088;28;20124;-72
2023/03/13 21:24:49;;;;;;;17.48;4.97;;;;;;;10.99;100.00;98866.53;10415760;28;20056;-73
2023/03/13 21:29:49;;;;;;;18.15;5.28;;;;;;;10.95;100.00;98868.91;10414951;28;20077;-74
2023/03/13 21:34:50;;;;;;;20.80;6.72;;;;;;;11.00;100.00;98889.81;10413707;28;20473;-73
2023/03/13 21:39:51;;;;;;;25.27;6.10;;;;;;;10.65;100.00;98880.09;10414577;28;20052;-72
2023/03/13 21:44:52;;;;;;;26.42;5.63;;;;;;;10.20;100.00;98865.56;10429795;28;20393;-72
2023/03/13 21:49:53;;;;;;;30.05;6.88;;;;;;;10.17;100.00;98849.00;10413174;28;20033;-72
2023/03/13 21:54:53;;;;;;;17.60;5.15;;;;;;;10.07;100.00;98851.56;10413789;28;20025;-73
2023/03/13 21:59:54;;;;;;;23.35;6.07;;;;;;;10.11;100.00;98834.56;10413796;28;20453;-73
2023/03/13 22:04:54;;;;;;;12.20;5.30;;;;;;;10.14;100.00;98817.03;10414300;28;20048;-72
2023/03/13 22:09:56;;;;;;;24.02;5.72;;;;;;;10.15;100.00;98824.94;10414071;28;20042;-73
2023/03/13 22:14:56;;;;;;;18.00;5.50;;;;;;;10.30;100.00;98835.19;10413605;28;20025;-74
2023/03/13 22:19:56;;;;;;;16.77;5.35;;;;;;;10.31;100.00;98839.56;10414738;28;20033;-74
2023/03/13 22:24:57;;;;;;;15.93;6.05;;;;;;;10.34;100.00;98844.47;10414908;28;20072;-73
2023/03/13 22:29:57;;;;;;;20.83;5.68;;;;;;;10.46;100.00;98850.63;10413477;28;20062;-74
2023/03/13 22:34:58;;;;;;;10.15;3.75;;;;;;;10.46;100.00;98858.75;10413932;28;20433;-74
2023/03/13 22:39:58;;;;;;;13.85;4.63;;;;;;;10.37;100.00;98852.09;10413927;28;20038;-74
2023/03/13 22:44:59;;;;;;;16.60;6.18;;;;;;;10.35;100.00;98843.41;10412646;28;20045;-74
2023/03/13 22:49:59;;;;;;;24.17;5.63;;;;;;;10.33;100.00;98842.81;10423820;28;20503;-75
2023/03/13 22:54:59;;;;;;;14.05;4.78;;;;;;;10.11;100.00;98861.63;10425136;28;20052;-75
2023/03/13 23:00:00;;;;;;;7.45;4.38;;;;;;;10.08;100.00;98845.88;10414374;28;20422;-75